createdAt,value
2023-01-02T00:02:14.056Z,19.00
2023-01-02T00:04:42.632Z,18.24
2023-01-02T00:07:11.038Z,18.05
2023-01-02T00:09:39.748Z,18.81
2023-01-02T00:12:13.932Z,19.19
2023-01-02T00:14:44.164Z,15.01
2023-01-02T00:17:14.060Z,15.01
2023-01-02T00:19:43.909Z,18.62
2023-01-02T00:22:13.774Z,15.01
2023-01-02T00:24:43.591Z,20.14
2023-01-02T00:27:14.680Z,23.56
2023-01-02T00:29:44.714Z,14.44
2023-01-02T00:32:15.499Z,17.29
2023-01-02T00:34:45.231Z,22.23
2023-01-02T00:37:13.695Z,20.52
2023-01-02T00:39:42.199Z,16.72
2023-01-02T00:42:14.122Z,15.77
2023-01-02T00:44:42.123Z,14.06
2023-01-02T00:47:10.447Z,19.95
2023-01-02T00:49:38.874Z,14.06
2023-01-02T00:52:07.373Z,16.72
2023-01-02T00:54:35.773Z,14.44
2023-01-02T00:57:04.063Z,17.48
2023-01-02T00:59:32.537Z,18.05
2023-01-02T01:02:01.142Z,18.81
2023-01-02T01:04:33.052Z,17.48
2023-01-02T01:07:03.673Z,17.10
2023-01-02T01:09:35.038Z,21.85
2023-01-02T01:12:08.739Z,20.90
2023-01-02T01:14:38.886Z,14.25
2023-01-02T01:17:08.686Z,16.15
2023-01-02T01:19:38.420Z,18.43
2023-01-02T01:22:08.354Z,15.96
2023-01-02T01:24:38.115Z,19.76
2023-01-02T01:27:07.948Z,16.53
2023-01-02T01:29:37.785Z,16.72
2023-01-02T01:32:06.163Z,12.16
2023-01-02T01:34:34.574Z,14.25
2023-01-02T01:37:03.261Z,16.91
2023-01-02T01:39:31.580Z,13.30
2023-01-02T01:42:01.576Z,15.20
2023-01-02T01:44:49.974Z,13.87
2023-01-02T01:47:49.643Z,15.77
2023-01-02T01:50:25.473Z,19.19
2023-01-02T01:53:10.080Z,19.19
2023-01-02T01:56:04.755Z,15.01
2023-01-02T01:58:43.225Z,12.73
2023-01-02T02:01:17.043Z,15.96
2023-01-02T02:03:50.565Z,19.00
2023-01-02T02:06:19.544Z,15.58
2023-01-02T02:09:07.465Z,12.73
2023-01-02T02:11:37.996Z,14.06
2023-01-02T02:14:08.283Z,14.82
2023-01-02T02:16:52.578Z,13.68
2023-01-02T02:20:06.052Z,15.39
2023-01-02T02:22:53.881Z,19.38
2023-01-02T02:25:48.445Z,15.39
2023-01-02T02:28:41.206Z,18.24
2023-01-02T02:31:52.669Z,15.77
2023-01-02T02:35:06.406Z,16.34
2023-01-02T02:38:02.663Z,11.78
2023-01-02T02:40:50.697Z,12.92
2023-01-02T02:43:32.921Z,17.48
2023-01-02T02:46:31.855Z,14.25
2023-01-02T02:49:26.261Z,15.58
2023-01-02T02:52:23.043Z,17.67
2023-01-02T02:55:19.568Z,15.39
2023-01-02T02:57:52.422Z,13.68
2023-01-02T03:00:24.210Z,18.62
2023-01-02T03:02:54.146Z,15.20
2023-01-02T03:05:40.112Z,18.24
2023-01-02T03:08:40.755Z,17.10
2023-01-02T03:11:12.837Z,15.20
2023-01-02T03:14:34.713Z,16.53
2023-01-02T03:17:36.209Z,15.77
2023-01-02T03:20:13.397Z,17.29
2023-01-02T03:22:53.139Z,13.68
2023-01-02T03:25:23.491Z,15.01
2023-01-02T03:27:56.276Z,14.25
2023-01-02T03:30:26.105Z,15.20
2023-01-02T03:33:09.288Z,14.25
2023-01-02T03:35:53.034Z,15.01
2023-01-02T03:38:40.551Z,17.67
2023-01-02T03:41:24.579Z,15.01
2023-01-02T03:43:58.856Z,12.54
2023-01-02T03:46:41.435Z,16.91
2023-01-02T03:49:27.114Z,15.77
2023-01-02T03:51:57.024Z,16.91
2023-01-02T03:54:29.232Z,14.06
2023-01-02T03:57:19.190Z,15.39
2023-01-02T03:59:57.607Z,17.10
2023-01-02T04:02:47.552Z,14.63
2023-01-02T04:05:31.966Z,13.49
2023-01-02T04:08:34.611Z,15.20
2023-01-02T04:11:07.851Z,14.06
2023-01-02T04:13:51.666Z,13.68
2023-01-02T04:16:29.628Z,18.81
2023-01-02T04:19:58.418Z,14.06
2023-01-02T04:22:43.928Z,14.82
2023-01-02T04:25:17.326Z,15.39
2023-01-02T04:27:58.011Z,14.25
2023-01-02T04:30:32.084Z,15.20
2023-01-02T04:33:09.403Z,17.29
2023-01-02T04:35:39.227Z,15.20
2023-01-02T04:38:12.257Z,13.68
2023-01-02T04:40:42.399Z,15.77
2023-01-02T04:43:21.354Z,11.59
2023-01-02T04:45:50.951Z,13.11
2023-01-02T04:48:18.690Z,13.11
2023-01-02T04:50:48.929Z,13.30
2023-01-02T04:53:18.659Z,16.15
2023-01-02T04:55:48.792Z,13.49
2023-01-02T04:58:18.587Z,15.39
2023-01-02T05:00:48.356Z,13.30
2023-01-02T05:03:18.201Z,15.20
2023-01-02T05:05:48.073Z,11.40
2023-01-02T05:08:17.832Z,13.49
2023-01-02T05:10:47.660Z,15.01
2023-01-02T05:13:17.620Z,13.68
2023-01-02T05:15:56.045Z,16.15
2023-01-02T05:18:29.342Z,15.01
2023-01-02T05:21:27.959Z,11.78
2023-01-02T05:24:02.256Z,11.97
2023-01-02T05:26:32.933Z,16.15
2023-01-02T05:29:01.959Z,12.54
2023-01-02T05:31:31.835Z,14.25
2023-01-02T05:34:01.690Z,11.97
2023-01-02T05:36:31.655Z,13.30
2023-01-02T05:39:01.710Z,14.44
2023-01-02T05:41:31.795Z,11.97
2023-01-02T05:44:01.593Z,18.62
2023-01-02T05:46:31.419Z,11.02
2023-01-02T05:49:08.243Z,13.11
2023-01-02T05:51:35.472Z,13.68
2023-01-02T05:54:04.246Z,13.49
2023-01-02T05:56:32.370Z,11.59
2023-01-02T05:59:00.522Z,12.16
2023-01-02T06:01:30.569Z,12.73
2023-01-02T06:04:01.620Z,14.63
2023-01-02T06:06:36.159Z,13.87
2023-01-02T06:09:06.317Z,13.87
2023-01-02T06:11:36.931Z,12.16
2023-01-02T06:14:06.172Z,10.83
2023-01-02T06:16:39.792Z,12.73
2023-01-02T06:19:09.084Z,15.01
2023-01-02T06:21:36.389Z,10.26
2023-01-02T06:24:06.617Z,11.97
2023-01-02T06:26:36.365Z,13.87
2023-01-02T06:29:06.199Z,12.16
2023-01-02T06:31:39.563Z,12.35
2023-01-02T06:34:10.187Z,13.11
2023-01-02T06:36:39.478Z,13.11
2023-01-02T06:39:06.850Z,11.59
2023-01-02T06:41:36.597Z,14.44
2023-01-02T06:44:06.398Z,11.40
2023-01-02T06:46:36.241Z,15.39
2023-01-02T06:49:06.105Z,12.16
2023-01-02T06:51:35.911Z,13.87
2023-01-02T06:54:05.789Z,12.16
2023-01-02T06:56:35.507Z,13.68
2023-01-02T06:59:05.332Z,12.35
2023-01-02T07:01:35.196Z,13.49
2023-01-02T07:04:05.311Z,10.26
2023-01-02T07:06:34.851Z,9.69
2023-01-02T07:09:04.682Z,11.02
2023-01-02T07:11:35.775Z,11.02
2023-01-02T07:14:04.814Z,12.54
2023-01-02T07:16:34.946Z,12.54
2023-01-02T07:19:03.564Z,15.77
2023-01-02T07:21:31.469Z,13.30
2023-01-02T07:23:59.981Z,10.83
2023-01-02T07:26:28.480Z,10.83
2023-01-02T07:28:56.953Z,11.21
2023-01-02T07:31:26.543Z,12.54
2023-01-02T07:33:54.023Z,10.83
2023-01-02T07:36:22.637Z,9.12
2023-01-02T07:38:56.198Z,10.83
2023-01-02T07:41:26.611Z,11.02
2023-01-02T07:43:58.144Z,12.54
2023-01-02T07:46:25.647Z,13.49
2023-01-02T07:48:55.394Z,11.97
2023-01-02T07:51:27.624Z,13.30
2023-01-02T07:53:56.300Z,9.69
2023-01-02T07:56:26.969Z,11.97
2023-01-02T07:58:56.339Z,11.02
2023-01-02T08:01:26.361Z,10.83
2023-01-02T08:03:56.469Z,10.83
2023-01-02T08:06:26.790Z,12.73
2023-01-02T08:08:56.512Z,12.73
2023-01-02T08:11:26.383Z,11.78
2023-01-02T08:13:57.271Z,12.54
2023-01-02T08:16:26.905Z,11.21
2023-01-02T08:18:56.966Z,10.83
2023-01-02T08:21:27.276Z,9.69
2023-01-02T08:23:57.019Z,10.26
2023-01-02T08:26:26.620Z,10.64
2023-01-02T08:28:56.362Z,13.11
2023-01-02T08:31:26.246Z,10.07
2023-01-02T08:33:56.137Z,10.83
2023-01-02T08:36:26.072Z,15.20
2023-01-02T08:38:55.898Z,11.40
2023-01-02T08:41:38.992Z,9.69
2023-01-02T08:44:08.034Z,10.83
2023-01-02T08:46:42.339Z,12.16
2023-01-02T08:49:12.881Z,10.45
2023-01-02T08:51:42.639Z,12.35
2023-01-02T08:54:12.772Z,12.54
2023-01-02T08:56:42.691Z,10.83
2023-01-02T08:59:12.981Z,8.93
2023-01-02T09:01:43.295Z,10.26
2023-01-02T09:04:13.801Z,12.92
2023-01-02T09:06:45.162Z,10.64
2023-01-02T09:09:16.749Z,17.67
2023-01-02T09:11:52.326Z,12.35
2023-01-02T09:14:22.631Z,11.97
2023-01-02T09:16:53.219Z,11.97
2023-01-02T09:19:20.852Z,11.97
2023-01-02T09:21:49.245Z,9.88
2023-01-02T09:24:18.150Z,12.16
2023-01-02T09:26:46.130Z,10.45
2023-01-02T09:29:15.620Z,11.40
2023-01-02T09:31:43.035Z,11.59
2023-01-02T09:34:11.986Z,12.92
2023-01-02T09:36:39.762Z,14.44
2023-01-02T09:39:09.106Z,11.40
2023-01-02T09:41:41.503Z,12.54
2023-01-02T09:44:46.167Z,11.40
2023-01-02T09:47:25.766Z,13.87
2023-01-02T09:50:01.604Z,12.73
2023-01-02T09:52:43.717Z,10.83
2023-01-02T09:55:38.258Z,12.54
2023-01-02T09:58:28.092Z,10.45
2023-01-02T10:00:59.332Z,10.45
2023-01-02T10:03:50.262Z,9.12
2023-01-02T10:06:28.630Z,10.45
2023-01-02T10:09:23.860Z,10.83
2023-01-02T10:12:08.398Z,11.97
2023-01-02T10:14:55.309Z,10.45
2023-01-02T10:17:30.273Z,10.26
2023-01-02T10:20:22.079Z,13.30
2023-01-02T10:23:03.088Z,12.16
2023-01-02T10:26:04.758Z,13.11
2023-01-02T10:28:46.276Z,13.30
2023-01-02T10:31:38.787Z,11.02
2023-01-02T10:34:18.470Z,10.83
2023-01-02T10:36:49.429Z,13.30
2023-01-02T10:39:27.888Z,14.25
2023-01-02T10:41:59.886Z,9.50
2023-01-02T10:44:39.963Z,12.35
2023-01-02T10:47:22.884Z,10.26
2023-01-02T10:49:53.498Z,11.78
2023-01-02T10:52:32.579Z,10.07
2023-01-02T10:55:03.218Z,12.16
2023-01-02T10:57:46.611Z,12.92
2023-01-02T11:00:27.205Z,12.54
2023-01-02T11:03:06.872Z,15.20
2023-01-02T11:05:47.456Z,11.21
2023-01-02T11:08:24.741Z,11.78
2023-01-02T11:10:54.489Z,14.63
2023-01-02T11:13:24.284Z,14.06
2023-01-02T11:16:04.139Z,11.21
2023-01-02T11:18:37.072Z,12.16
2023-01-02T11:21:08.261Z,12.73
2023-01-02T11:23:44.968Z,13.30
2023-01-02T11:26:24.303Z,13.30
2023-01-02T11:28:59.216Z,11.78
2023-01-02T11:31:29.179Z,13.49
2023-01-02T11:34:19.446Z,9.12
2023-01-02T11:37:21.875Z,11.02
2023-01-02T11:40:07.755Z,13.30
2023-01-02T11:43:07.609Z,17.67
2023-01-02T11:45:37.727Z,10.07
2023-01-02T11:48:15.644Z,9.12
2023-01-02T11:50:45.449Z,10.07
2023-01-02T11:53:12.443Z,10.07
2023-01-02T11:55:53.419Z,14.82
2023-01-02T11:59:09.824Z,10.83
2023-01-02T12:02:05.943Z,13.11
2023-01-02T12:04:36.697Z,11.02
2023-01-02T12:07:37.562Z,10.64
2023-01-02T12:10:33.682Z,11.02
2023-01-02T12:13:33.698Z,11.21
2023-01-02T12:16:34.183Z,11.21
2023-01-02T12:19:34.885Z,13.30
2023-01-02T12:22:52.721Z,8.93
2023-01-02T12:25:40.307Z,11.59
2023-01-02T12:28:41.529Z,14.25
2023-01-02T12:31:29.590Z,15.39
2023-01-02T12:34:29.711Z,13.30
2023-01-02T12:37:32.838Z,13.87
2023-01-02T12:40:21.500Z,15.58
2023-01-02T12:43:49.119Z,10.64
2023-01-02T12:46:53.959Z,17.29
2023-01-02T12:50:01.111Z,16.34
2023-01-02T12:53:03.150Z,15.58
2023-01-02T12:56:05.457Z,12.16
2023-01-02T12:58:59.877Z,9.12
2023-01-02T13:01:46.552Z,9.88
2023-01-02T13:04:27.227Z,14.25
2023-01-02T13:07:05.386Z,11.78
2023-01-02T13:09:42.643Z,11.21
2023-01-02T13:12:30.068Z,10.45
2023-01-02T13:15:13.221Z,11.97
2023-01-02T13:18:21.948Z,16.15
2023-01-02T13:21:09.020Z,12.16
2023-01-02T13:23:51.853Z,10.83
2023-01-02T13:26:27.220Z,17.48
2023-01-02T13:28:58.829Z,9.50
2023-01-02T13:31:46.431Z,11.21
2023-01-02T13:34:32.306Z,11.59
2023-01-02T13:37:10.087Z,11.40
2023-01-02T13:39:39.677Z,12.73
2023-01-02T13:42:43.559Z,10.64
2023-01-02T13:45:34.815Z,15.20
2023-01-02T13:48:19.001Z,15.77
2023-01-02T13:51:02.295Z,10.26
2023-01-02T13:53:43.748Z,15.01
2023-01-02T13:56:16.156Z,16.15
2023-01-02T13:58:53.151Z,15.39
2023-01-02T14:01:25.412Z,11.59
2023-01-02T14:04:07.829Z,14.63
2023-01-02T14:06:48.568Z,11.21
2023-01-02T14:09:24.025Z,11.02
2023-01-02T14:11:57.673Z,12.35
2023-01-02T14:14:49.860Z,15.96
2023-01-02T14:17:51.146Z,13.87
2023-01-02T14:20:34.397Z,11.78
2023-01-02T14:23:10.931Z,13.87
2023-01-02T14:25:50.151Z,16.15
2023-01-02T14:28:29.671Z,16.15
2023-01-02T14:31:18.000Z,15.58
2023-01-02T14:33:55.632Z,13.87
2023-01-02T14:36:49.089Z,12.16
2023-01-02T14:39:27.546Z,16.53
2023-01-02T14:42:58.449Z,12.92
2023-01-02T14:45:28.316Z,16.34
2023-01-02T14:48:13.055Z,12.54
2023-01-02T14:50:47.991Z,16.15
2023-01-02T14:53:37.958Z,13.30
2023-01-02T14:56:21.806Z,13.87
2023-01-02T14:58:52.429Z,12.54
2023-01-02T15:01:43.234Z,11.21
2023-01-02T15:04:39.037Z,12.16
2023-01-02T15:07:17.357Z,12.35
2023-01-02T15:10:19.781Z,11.59
2023-01-02T15:13:04.570Z,12.92
2023-01-02T15:15:43.877Z,15.58
2023-01-02T15:18:35.446Z,12.73
2023-01-02T15:21:15.925Z,15.96
2023-01-02T15:23:48.585Z,10.83
2023-01-02T15:26:34.372Z,17.67
2023-01-02T15:29:20.031Z,16.53
2023-01-02T15:32:01.007Z,13.49
2023-01-02T15:34:34.052Z,13.11
2023-01-02T15:37:07.585Z,15.58
2023-01-02T15:39:44.178Z,9.12
2023-01-02T15:42:43.209Z,11.21
2023-01-02T15:45:17.089Z,8.74
2023-01-02T15:47:50.428Z,10.45
2023-01-02T15:50:25.405Z,6.27
2023-01-02T15:53:22.175Z,9.50
2023-01-02T15:55:51.964Z,6.84
2023-01-02T15:58:35.998Z,7.03
2023-01-02T16:01:22.344Z,9.12
2023-01-02T16:04:04.664Z,8.36
2023-01-02T16:06:45.109Z,7.60
2023-01-02T16:09:27.432Z,8.93
2023-01-02T16:12:02.283Z,8.17
2023-01-02T16:14:42.901Z,8.17
2023-01-02T16:17:28.836Z,8.17
2023-01-02T16:20:00.096Z,7.79
2023-01-02T16:22:42.757Z,5.70
2023-01-02T16:25:13.200Z,8.74
2023-01-02T16:28:34.021Z,9.69
2023-01-02T16:31:26.345Z,6.84
2023-01-02T16:34:14.423Z,7.98
2023-01-02T16:36:43.211Z,5.13
2023-01-02T16:39:45.147Z,8.36
2023-01-02T16:42:35.418Z,6.46
2023-01-02T16:45:07.110Z,7.79
2023-01-02T16:47:42.394Z,8.93
2023-01-02T16:50:22.215Z,4.94
2023-01-02T16:53:06.102Z,5.32
2023-01-02T16:55:36.263Z,6.84
2023-01-02T16:58:06.305Z,8.36
2023-01-02T17:00:42.899Z,5.70
2023-01-02T17:03:22.274Z,9.31
2023-01-02T17:06:03.235Z,9.31
2023-01-02T17:08:32.256Z,6.65
2023-01-02T17:11:00.613Z,5.70
2023-01-02T17:13:29.402Z,5.89
2023-01-02T17:15:59.121Z,5.70
2023-01-02T17:18:27.384Z,5.89
2023-01-02T17:20:55.891Z,5.70
2023-01-02T17:23:24.369Z,5.89
2023-01-02T17:25:52.720Z,5.32
2023-01-02T17:28:21.160Z,6.27
2023-01-02T17:30:50.190Z,5.32
2023-01-02T17:33:19.562Z,6.65
2023-01-02T17:35:48.549Z,5.32
2023-01-02T17:38:18.989Z,5.13
2023-01-02T17:40:49.226Z,7.22
2023-01-02T17:43:19.085Z,5.51
2023-01-02T17:45:48.895Z,5.13
2023-01-02T17:48:24.245Z,5.32
2023-01-02T17:50:53.756Z,5.32
2023-01-02T17:53:21.951Z,6.46
2023-01-02T17:56:20.767Z,5.70
2023-01-02T17:58:46.183Z,6.08
2023-01-02T18:01:19.779Z,5.13
2023-01-02T18:03:49.700Z,5.32
2023-01-02T18:06:20.257Z,5.13
2023-01-02T18:08:54.378Z,7.41
2023-01-02T18:11:24.535Z,5.51
2023-01-02T18:13:56.400Z,5.70
2023-01-02T18:16:37.529Z,5.13
2023-01-02T18:19:15.937Z,8.55
2023-01-02T18:21:45.921Z,5.32
2023-01-02T18:24:32.249Z,4.94
2023-01-02T18:27:13.889Z,4.94
2023-01-02T18:29:45.032Z,5.89
2023-01-02T18:32:30.668Z,5.32
2023-01-02T18:38:37.987Z,5.13
2023-01-02T18:41:28.460Z,7.41
2023-01-02T18:44:15.233Z,6.08
2023-01-02T18:47:02.033Z,5.70
2023-01-02T18:49:43.281Z,7.79
2023-01-02T18:52:28.532Z,5.70
2023-01-02T18:55:02.116Z,5.51
2023-01-02T18:57:48.704Z,6.08
2023-01-02T19:00:25.841Z,5.32
2023-01-02T19:03:27.243Z,5.70
2023-01-02T19:06:01.699Z,5.32
2023-01-02T19:08:38.039Z,5.89
2023-01-02T19:11:37.851Z,4.75
2023-01-02T19:14:25.178Z,4.75
2023-01-02T19:17:28.366Z,5.13
2023-01-02T19:19:57.752Z,5.89
2023-01-02T19:22:35.885Z,5.13
2023-01-02T19:25:19.638Z,5.51
2023-01-02T19:27:51.802Z,6.65
2023-01-02T19:30:38.643Z,6.65
2023-01-02T19:33:34.569Z,5.13
2023-01-02T19:36:11.768Z,6.08
2023-01-02T19:38:41.660Z,5.13
2023-01-02T19:41:11.613Z,5.13
2023-01-02T19:43:41.435Z,5.13
2023-01-02T19:46:11.265Z,6.27
2023-01-02T19:48:41.198Z,6.46
2023-01-02T19:51:10.967Z,5.70
2023-01-02T19:53:40.776Z,6.46
2023-01-02T19:56:10.870Z,5.51
2023-01-02T19:58:40.598Z,5.51
2023-01-02T20:01:10.560Z,5.89
2023-01-02T20:03:40.358Z,4.94
2023-01-02T20:06:10.271Z,7.79
2023-01-02T20:08:42.014Z,7.03
2023-01-02T20:11:31.652Z,9.12
2023-01-02T20:14:01.460Z,5.51
2023-01-02T20:16:31.220Z,5.51
2023-01-02T20:19:01.057Z,5.89
2023-01-02T20:21:30.841Z,5.32
2023-01-02T20:24:01.321Z,5.32
2023-01-02T20:26:31.168Z,5.32
2023-01-02T20:28:59.640Z,6.46
2023-01-02T20:31:28.321Z,6.65
2023-01-02T20:33:56.600Z,6.08
2023-01-02T20:36:24.810Z,5.32
2023-01-02T20:38:53.297Z,6.08
2023-01-02T20:41:21.778Z,6.08
2023-01-02T20:43:50.129Z,6.08
2023-01-02T20:46:18.662Z,6.08
2023-01-02T20:48:46.956Z,7.03
2023-01-02T20:51:15.330Z,5.70
2023-01-02T20:53:43.771Z,6.46
2023-01-02T20:56:12.225Z,7.22
2023-01-02T20:58:40.544Z,7.22
2023-01-02T21:01:09.301Z,5.89
2023-01-02T21:03:37.474Z,6.65
2023-01-02T21:06:06.252Z,5.32
2023-01-02T21:08:36.611Z,5.89
2023-01-02T21:11:07.230Z,8.55
2023-01-02T21:13:35.228Z,5.70
2023-01-02T21:16:02.902Z,6.65
2023-01-02T21:18:38.194Z,5.13
2023-01-02T21:21:16.368Z,5.70
2023-01-02T21:23:48.231Z,6.08
2023-01-02T21:26:20.058Z,6.65
2023-01-02T21:28:50.752Z,6.27
2023-01-02T21:31:21.324Z,7.79
2023-01-02T21:33:51.191Z,5.70
2023-01-02T21:36:21.010Z,7.22
2023-01-02T21:38:51.161Z,7.79
2023-01-02T21:41:39.428Z,7.03
2023-01-02T21:44:09.280Z,6.46
2023-01-02T21:46:39.111Z,5.89
2023-01-02T21:49:09.619Z,5.13
2023-01-02T21:51:37.547Z,7.22
2023-01-02T21:54:05.929Z,6.46
2023-01-02T21:56:34.512Z,5.89
2023-01-02T21:59:02.897Z,6.65
2023-01-02T22:01:31.265Z,9.69
2023-01-02T22:03:59.730Z,6.65
2023-01-02T22:06:33.969Z,7.41
2023-01-02T22:09:04.808Z,6.08
2023-01-02T22:11:52.778Z,7.22
2023-01-02T22:14:34.139Z,7.98
2023-01-02T22:17:09.671Z,7.60
2023-01-02T22:19:39.842Z,7.79
2023-01-02T22:22:09.886Z,6.46
2023-01-02T22:24:44.426Z,7.41
2023-01-02T22:27:18.377Z,6.84
2023-01-02T22:32:40.168Z,8.74
2023-01-02T22:35:09.728Z,7.79
2023-01-02T22:37:36.880Z,7.41
2023-01-02T22:40:05.998Z,10.83
2023-01-02T22:43:03.801Z,7.60
2023-01-02T22:45:47.914Z,8.36
2023-01-02T22:48:36.928Z,11.59
2023-01-02T22:51:10.742Z,9.31
2023-01-02T22:53:41.281Z,7.98
2023-01-02T22:56:18.086Z,10.07
2023-01-02T22:58:49.935Z,8.74
2023-01-02T23:01:27.752Z,8.55
2023-01-02T23:03:57.949Z,9.12
2023-01-02T23:06:28.693Z,6.46
2023-01-02T23:08:58.425Z,8.93
2023-01-02T23:11:28.245Z,11.40
2023-01-02T23:13:58.147Z,6.27
2023-01-02T23:16:46.650Z,9.12
2023-01-02T23:19:18.918Z,8.55
2023-01-02T23:21:52.711Z,7.98
2023-01-02T23:24:30.394Z,8.93
2023-01-02T23:27:06.924Z,5.89
2023-01-02T23:29:38.483Z,7.60
2023-01-02T23:32:13.946Z,9.31
2023-01-02T23:34:43.744Z,7.03
2023-01-02T23:37:13.526Z,6.65
2023-01-02T23:39:43.407Z,6.84
2023-01-02T23:42:18.297Z,10.45
2023-01-02T23:44:48.121Z,11.40
2023-01-02T23:47:19.429Z,8.36
2023-01-02T23:49:49.440Z,10.26
2023-01-02T23:52:19.279Z,7.79
2023-01-02T23:54:49.067Z,8.17
2023-01-02T23:57:18.904Z,11.21
2023-01-02T23:59:48.691Z,8.17
